Time;durP1;ratioP1;P1;durP2;ratioP2;P2;SDS_P1;SDS_P2;PMS_P1;PMS_P2;Temp;Humidity;BMP_temperature;BMP_pressure;BME280_temperature;BME280_humidity;BME280_pressure;Samples;Min_cycle;Max_cycle;Signal;HPM_P1;HPM_P2
2022/01/11 02:00:17;;;;;;;9.52;4.82;;;;;;;-1.11;94.45;94530.16;5021346;28;20041;-88
2022/01/11 02:02:43;;;;;;;7.90;4.22;;;;;;;-0.51;88.38;94531.34;5005632;28;20096;-88
2022/01/11 02:05:08;;;;;;;8.88;4.07;;;;;;;-0.38;84.00;94531.41;4989279;28;20108;-88
2022/01/11 02:07:35;;;;;;;8.77;4.47;;;;;;;-0.45;82.56;94523.66;4985906;28;20030;-88
2022/01/11 02:10:03;;;;;;;10.68;4.30;;;;;;;-0.37;81.93;94524.47;4969818;28;20435;-89
2022/01/11 02:12:29;;;;;;;8.65;4.85;;;;;;;-0.27;80.68;94527.47;4986260;28;20030;-88
2022/01/11 02:14:58;;;;;;;11.60;4.18;;;;;;;-0.40;80.36;94528.22;4970055;28;20041;-87
2022/01/11 02:17:30;;;;;;;9.20;4.85;;;;;;;-0.44;79.61;94529.63;4969580;28;20038;-88
2022/01/11 02:20:05;;;;;;;10.25;4.95;;;;;;;-0.47;79.16;94540.31;4988122;28;20419;-87
2022/01/11 02:22:30;;;;;;;9.80;4.85;;;;;;;-0.28;76.72;94541.34;4982906;28;20386;-87
2022/01/11 02:24:58;;;;;;;12.82;4.53;;;;;;;-0.05;74.40;94535.84;4982806;28;20033;-88
2022/01/11 02:27:26;;;;;;;12.02;5.22;;;;;;;0.02;73.79;94542.78;4982833;28;20029;-90
2022/01/11 02:29:54;;;;;;;9.15;4.20;;;;;;;-0.23;75.79;94543.31;5000139;28;20030;-90
2022/01/11 02:32:19;;;;;;;10.20;4.90;;;;;;;-0.37;79.44;94543.28;4982498;28;20145;-90
2022/01/11 02:34:45;;;;;;;11.57;5.05;;;;;;;-0.60;82.17;94548.75;4966522;28;20030;-90
2022/01/11 02:37:11;;;;;;;7.95;3.80;;;;;;;-0.68;83.84;94544.56;4982723;28;20031;-90
2022/01/11 02:39:36;;;;;;;7.60;4.10;;;;;;;-0.76;85.53;94549.91;4982522;28;20032;-91
2022/01/11 02:42:02;;;;;;;7.90;3.83;;;;;;;-0.84;90.00;94557.75;4965991;28;20034;-90
2022/01/11 02:44:27;;;;;;;10.25;4.63;;;;;;;-0.79;87.71;94556.22;4982261;28;20061;-90
2022/01/11 02:46:53;;;;;;;11.52;4.70;;;;;;;-0.91;88.60;94562.88;4966155;28;20026;-90
2022/01/11 02:49:22;;;;;;;13.20;4.72;;;;;;;-0.95;90.49;94562.44;4966580;28;20033;-90
2022/01/11 02:51:50;;;;;;;13.82;5.53;;;;;;;-0.79;90.68;94566.50;4982136;28;20029;-90
2022/01/11 02:54:18;;;;;;;10.00;4.70;;;;;;;-0.91;92.43;94568.03;4982179;28;20037;-90
2022/01/11 02:56:44;;;;;;;10.40;4.90;;;;;;;-0.84;89.73;94573.19;4982303;28;20030;-90
2022/01/11 02:59:10;;;;;;;12.43;5.38;;;;;;;-0.67;85.41;94577.03;4981916;28;20622;-90
2022/01/11 03:01:37;;;;;;;11.18;5.20;;;;;;;-0.93;89.05;94573.38;4965703;28;20034;-90
2022/01/11 03:04:03;;;;;;;11.32;4.82;;;;;;;-0.93;88.27;94572.56;4982439;28;20037;-87
2022/01/11 03:06:29;;;;;;;10.02;4.80;;;;;;;-1.03;93.88;94581.41;4966158;28;20423;-87
2022/01/11 03:08:54;;;;;;;10.80;4.65;;;;;;;-1.20;97.11;94588.66;4982052;28;20431;-87
2022/01/11 03:11:21;;;;;;;12.02;4.95;;;;;;;-1.27;98.88;94584.44;4981829;28;20034;-88
2022/01/11 03:13:49;;;;;;;13.25;4.75;;;;;;;-1.51;98.99;94578.72;4981909;28;20030;-88
2022/01/11 03:16:16;;;;;;;11.07;4.30;;;;;;;-1.48;97.28;94588.63;4998105;28;20030;-88
2022/01/11 03:18:43;;;;;;;10.10;4.05;;;;;;;-1.40;96.27;94585.94;4965740;28;20446;-87
2022/01/11 03:21:09;;;;;;;9.95;4.32;;;;;;;-1.30;96.05;94580.47;4997936;28;20036;-88
2022/01/11 03:23:37;;;;;;;9.20;4.10;;;;;;;-1.20;92.10;94572.41;4965752;28;20030;-87
2022/01/11 03:26:03;;;;;;;9.68;3.75;;;;;;;-0.92;87.97;94571.56;4965496;28;20443;-87
2022/01/11 03:28:30;;;;;;;6.88;3.55;;;;;;;-0.71;86.22;94570.69;4998514;28;20037;-87
2022/01/11 03:30:56;;;;;;;7.72;3.58;;;;;;;-0.50;84.55;94572.34;4997696;28;20080;-87
2022/01/11 03:33:22;;;;;;;10.05;3.85;;;;;;;-0.30;83.34;94572.44;4981646;28;20030;-87
2022/01/11 03:35:48;;;;;;;7.13;3.75;;;;;;;-0.48;84.92;94572.97;4982033;28;20084;-88
2022/01/11 03:38:17;;;;;;;6.45;3.08;;;;;;;-0.28;84.15;94569.66;4965418;28;20424;-88
2022/01/11 03:40:43;;;;;;;7.72;4.00;;;;;;;-0.13;82.73;94566.16;4965472;28;20148;-87
2022/01/11 03:43:09;;;;;;;8.50;3.70;;;;;;;-0.15;82.38;94569.69;4981313;28;20120;-88
2022/01/11 03:45:35;;;;;;;7.32;3.72;;;;;;;-0.20;84.16;94566.13;4965364;28;20033;-89
2022/01/11 03:48:03;;;;;;;8.60;3.45;;;;;;;-0.25;84.44;94560.75;4997549;28;20339;-87
2022/01/11 03:50:31;;;;;;;7.45;3.78;;;;;;;-0.32;85.85;94568.44;4965416;28;20129;-88
2022/01/11 03:53:05;;;;;;;7.32;3.35;;;;;;;-0.23;86.92;94569.06;4965846;28;20026;-88
2022/01/11 03:58:15;;;;;;;11.52;3.90;;;;;;;-0.80;91.79;94564.91;4983449;28;20039;-87
2022/01/11 04:00:41;;;;;;;6.57;3.15;;;;;;;-0.72;95.03;94567.34;4965265;28;20120;-88
2022/01/11 04:03:09;;;;;;;6.00;3.22;;;;;;;-0.84;96.38;94574.00;4981348;28;20339;-87
2022/01/11 04:05:38;;;;;;;8.80;3.42;;;;;;;-0.74;95.80;94574.44;4965713;28;20036;-88
2022/01/11 04:08:03;;;;;;;7.53;3.17;;;;;;;-0.80;98.62;94576.97;4997182;28;20057;-88
2022/01/11 04:10:29;;;;;;;10.15;3.60;;;;;;;-0.83;98.86;94583.31;4980666;28;20068;-87
2022/01/11 04:12:55;;;;;;;9.07;3.53;;;;;;;-0.63;97.93;94590.31;4980924;28;20026;-88
2022/01/11 04:15:20;;;;;;;8.95;3.90;;;;;;;-0.83;100.00;94585.88;4964377;28;20346;-88
2022/01/11 04:17:46;;;;;;;13.60;5.43;;;;;;;-0.60;92.35;94585.59;4980908;28;20033;-88
2022/01/11 04:20:19;;;;;;;10.80;4.70;;;;;;;-0.72;94.17;94587.94;4985957;28;20037;-88
2022/01/11 04:22:48;;;;;;;8.65;4.55;;;;;;;-1.06;100.00;94589.50;4980047;28;20458;-87
2022/01/11 04:25:14;;;;;;;12.23;5.00;;;;;;;-1.35;100.00;94598.22;4981204;28;20351;-87
2022/01/11 04:27:39;;;;;;;11.90;5.20;;;;;;;-1.32;100.00;94605.56;4980659;28;20042;-88
2022/01/11 04:30:05;;;;;;;8.18;4.07;;;;;;;-1.60;100.00;94601.97;4985013;28;20038;-88
2022/01/11 04:32:34;;;;;;;10.55;4.82;;;;;;;-1.62;100.00;94598.78;4980021;28;20398;-88
2022/01/11 04:35:02;;;;;;;11.73;4.43;;;;;;;-1.67;100.00;94601.13;4965343;28;20026;-88
2022/01/11 04:37:28;;;;;;;9.27;3.92;;;;;;;-1.80;100.00;94606.16;4981068;28;20034;-89
2022/01/11 04:39:53;;;;;;;9.65;4.30;;;;;;;-1.89;100.00;94608.06;4980379;28;20034;-88
2022/01/11 04:42:19;;;;;;;10.18;4.55;;;;;;;-1.71;100.00;94602.50;4980383;28;20066;-88
2022/01/11 04:44:47;;;;;;;10.45;4.50;;;;;;;-1.65;100.00;94617.16;4980605;28;20041;-89
2022/01/11 04:47:12;;;;;;;9.75;4.53;;;;;;;-1.71;100.00;94615.34;4980713;28;20150;-89
2022/01/11 04:49:38;;;;;;;13.75;4.68;;;;;;;-1.65;100.00;94619.72;4980302;28;20043;-89
2022/01/11 04:52:04;;;;;;;10.98;4.07;;;;;;;-1.74;100.00;94615.69;4980346;28;20068;-89
2022/01/11 04:54:30;;;;;;;9.35;3.95;;;;;;;-1.82;100.00;94624.31;4964663;28;20121;-88
2022/01/11 04:56:55;;;;;;;12.52;4.13;;;;;;;-1.92;100.00;94627.19;4980148;28;20034;-89
2022/01/11 04:59:22;;;;;;;9.65;4.18;;;;;;;-1.96;100.00;94631.09;4980521;28;20045;-89
2022/01/11 05:01:48;;;;;;;8.63;3.95;;;;;;;-1.94;100.00;94630.91;4979093;28;20045;-88
2022/01/11 05:04:14;;;;;;;8.65;3.75;;;;;;;-1.97;100.00;94631.28;4980135;28;20026;-88
2022/01/11 05:06:39;;;;;;;11.93;4.45;;;;;;;-1.89;100.00;94631.16;4996562;28;20096;-88
2022/01/11 05:09:05;;;;;;;9.05;3.63;;;;;;;-1.89;100.00;94634.50;4980556;28;20034;-88
2022/01/11 05:11:31;;;;;;;10.27;3.50;;;;;;;-1.76;100.00;94640.75;4980110;28;20037;-89
2022/01/11 05:13:57;;;;;;;7.97;3.65;;;;;;;-1.78;100.00;94629.88;4979901;28;20439;-88
2022/01/11 05:16:22;;;;;;;7.28;3.38;;;;;;;-1.89;100.00;94638.88;4963647;28;20051;-88
2022/01/11 05:18:48;;;;;;;7.57;3.20;;;;;;;-1.71;100.00;94641.03;4980243;28;20046;-88
2022/01/11 05:21:14;;;;;;;7.80;3.58;;;;;;;-1.71;100.00;94641.03;4997067;28;20034;-88
2022/01/11 05:23:39;;;;;;;7.72;3.80;;;;;;;-1.51;100.00;94645.53;4979997;28;20038;-87
2022/01/11 05:26:04;;;;;;;6.97;4.07;;;;;;;-1.30;100.00;94637.78;4980259;28;20030;-89
2022/01/11 05:28:33;;;;;;;7.22;3.03;;;;;;;-1.24;100.00;94653.47;4996200;28;20084;-90
2022/01/11 05:30:58;;;;;;;10.85;3.53;;;;;;;-0.83;100.00;94647.63;4964037;28;20129;-89
2022/01/11 05:33:24;;;;;;;8.77;3.30;;;;;;;-0.63;100.00;94649.50;4980197;28;20064;-89
2022/01/11 05:35:50;;;;;;;7.78;3.53;;;;;;;-0.84;100.00;94648.63;4996381;28;20034;-89
2022/01/11 05:38:15;;;;;;;8.55;3.85;;;;;;;-0.84;100.00;94652.94;4996856;28;20030;-89
2022/01/11 05:40:41;;;;;;;8.82;3.67;;;;;;;-1.01;100.00;94653.25;4979934;28;20027;-89
2022/01/11 05:43:06;;;;;;;8.30;3.10;;;;;;;-0.97;100.00;94656.25;4979882;28;20450;-88
2022/01/11 05:45:32;;;;;;;9.73;3.45;;;;;;;-0.79;100.00;94661.69;4980157;28;20033;-88
2022/01/11 05:47:58;;;;;;;7.65;3.05;;;;;;;-1.04;100.00;94664.69;4996362;28;20125;-89
2022/01/11 05:50:34;;;;;;;8.45;2.80;;;;;;;-0.88;100.00;94667.97;4964124;28;20033;-87
2022/01/11 05:53:00;;;;;;;11.30;3.47;;;;;;;-0.76;100.00;94668.25;4982020;28;20030;-87
2022/01/11 05:55:25;;;;;;;8.93;3.47;;;;;;;-0.82;100.00;94677.53;5004671;28;20036;-88
2022/01/11 05:57:52;;;;;;;9.27;3.47;;;;;;;-0.84;100.00;94665.81;4986766;28;20065;-88
2022/01/11 06:00:20;;;;;;;9.18;3.50;;;;;;;-0.91;100.00;94663.19;4973856;28;20042;-88
2022/01/11 06:02:48;;;;;;;10.15;3.05;;;;;;;-0.92;100.00;94670.13;4996593;28;20045;-88
2022/01/11 06:05:16;;;;;;;9.27;3.20;;;;;;;-0.69;100.00;94678.59;4983630;28;20034;-87
2022/01/11 06:07:42;;;;;;;11.27;4.40;;;;;;;-0.66;100.00;94678.22;4987081;28;20029;-88
2022/01/11 06:10:08;;;;;;;14.32;3.35;;;;;;;-0.96;100.00;94681.75;5020081;28;20438;-89
2022/01/11 06:12:33;;;;;;;8.43;3.67;;;;;;;-1.01;100.00;94672.03;4986318;28;20335;-87
2022/01/11 06:15:01;;;;;;;12.52;3.63;;;;;;;-0.93;100.00;94683.19;4986504;28;20191;-88
2022/01/11 06:17:27;;;;;;;8.73;3.40;;;;;;;-1.00;100.00;94695.97;4986995;28;20103;-88
2022/01/11 06:19:52;;;;;;;10.60;3.42;;;;;;;-0.89;100.00;94692.91;5000298;28;20035;-87
2022/01/11 06:22:18;;;;;;;8.88;3.70;;;;;;;-1.05;100.00;94701.69;4987810;28;20037;-88
2022/01/11 06:24:43;;;;;;;7.60;3.47;;;;;;;-1.10;100.00;94696.31;4982855;28;20030;-88
2022/01/11 06:27:16;;;;;;;18.60;4.18;;;;;;;-1.27;100.00;94711.19;4999806;28;20095;-88
2022/01/11 06:29:41;;;;;;;8.75;3.45;;;;;;;-1.47;100.00;94716.16;4967781;28;20177;-88
2022/01/11 06:32:07;;;;;;;10.60;4.70;;;;;;;-1.57;100.00;94717.25;4999032;28;20462;-87
2022/01/11 06:34:33;;;;;;;8.20;4.13;;;;;;;-1.73;100.00;94714.91;4982321;28;20133;-88
2022/01/11 06:37:01;;;;;;;11.95;4.22;;;;;;;-1.85;100.00;94723.09;4999999;28;20450;-87
2022/01/11 06:39:27;;;;;;;8.57;4.10;;;;;;;-1.94;100.00;94724.16;4982616;28;20331;-87
2022/01/11 06:41:52;;;;;;;9.13;3.67;;;;;;;-1.76;100.00;94735.81;4982358;28;20041;-87
2022/01/11 06:44:18;;;;;;;13.90;4.80;;;;;;;-1.61;100.00;94743.50;4999168;28;20424;-88
2022/01/11 06:46:45;;;;;;;12.45;3.88;;;;;;;-1.33;100.00;94743.56;4982504;28;20417;-88
2022/01/11 06:49:11;;;;;;;8.73;3.30;;;;;;;-1.47;100.00;94739.28;4966724;28;20431;-87
2022/01/11 06:51:39;;;;;;;14.57;3.50;;;;;;;-1.51;100.00;94743.19;4998452;28;20035;-88
2022/01/11 06:54:05;;;;;;;9.40;3.25;;;;;;;-1.35;100.00;94747.31;4982951;28;20034;-88
2022/01/11 06:56:30;;;;;;;10.85;3.25;;;;;;;-1.29;100.00;94749.97;4982128;28;20038;-87
2022/01/11 06:58:58;;;;;;;14.52;4.20;;;;;;;-1.29;100.00;94752.53;4965779;28;20045;-88
2022/01/11 07:01:23;;;;;;;10.30;3.15;;;;;;;-1.29;100.00;94754.28;4982317;28;20145;-88
2022/01/11 07:03:49;;;;;;;17.35;4.57;;;;;;;-1.31;100.00;94748.53;4981395;28;20069;-87
2022/01/11 07:06:14;;;;;;;12.75;4.20;;;;;;;-1.33;100.00;94759.00;4981922;28;20035;-88
2022/01/11 07:08:40;;;;;;;12.85;4.15;;;;;;;-1.41;100.00;94761.69;4982534;28;20045;-87
2022/01/11 07:11:05;;;;;;;11.55;4.82;;;;;;;-1.42;100.00;94760.09;4966057;28;20420;-87
2022/01/11 07:13:30;;;;;;;11.90;3.53;;;;;;;-1.13;100.00;94758.41;4981628;28;20108;-88
2022/01/11 07:15:56;;;;;;;12.70;3.83;;;;;;;-1.30;100.00;94766.34;4998633;28;20073;-87
2022/01/11 07:18:21;;;;;;;9.35;3.58;;;;;;;-1.24;100.00;94771.75;4965945;28;20030;-88
2022/01/11 07:20:47;;;;;;;11.18;3.35;;;;;;;-0.97;100.00;94772.00;4981927;28;20049;-88
2022/01/11 07:23:13;;;;;;;9.70;3.85;;;;;;;-0.90;100.00;94772.84;4982164;28;20038;-89
2022/01/11 07:25:38;;;;;;;14.75;3.78;;;;;;;-0.67;100.00;94775.19;4965804;28;20038;-87
2022/01/11 07:28:06;;;;;;;6.85;3.38;;;;;;;-0.64;100.00;94782.56;4966122;28;20082;-88
2022/01/11 07:30:32;;;;;;;10.13;4.50;;;;;;;-0.59;100.00;94787.13;5009129;28;20423;-88
2022/01/11 07:33:01;;;;;;;11.32;4.28;;;;;;;-0.51;100.00;94801.63;5001161;28;20032;-87
2022/01/11 07:35:27;;;;;;;10.52;3.70;;;;;;;-0.64;100.00;94792.03;5001525;28;20034;-87
2022/01/11 07:37:52;;;;;;;10.70;3.05;;;;;;;-0.67;100.00;94802.72;5001072;28;20041;-87
2022/01/11 07:40:19;;;;;;;13.73;3.35;;;;;;;-0.63;100.00;94803.94;5001462;28;20338;-88
2022/01/11 07:42:45;;;;;;;12.27;4.80;;;;;;;-0.52;100.00;94808.56;4984034;28;20057;-88
2022/01/11 07:45:10;;;;;;;10.50;2.90;;;;;;;-0.41;100.00;94809.84;4984673;28;20037;-87
2022/01/11 07:47:38;;;;;;;7.80;2.85;;;;;;;-0.19;100.00;94813.16;5000692;28;20034;-87
2022/01/11 07:50:06;;;;;;;10.07;4.32;;;;;;;-0.16;100.00;94817.13;5001584;28;20036;-86
2022/01/11 07:52:33;;;;;;;18.08;6.88;;;;;;;0.07;100.00;94810.91;4984734;28;20091;-86
2022/01/11 07:55:01;;;;;;;10.05;4.47;;;;;;;0.05;100.00;94820.63;5018320;28;20056;-86
2022/01/11 07:57:30;;;;;;;11.57;3.47;;;;;;;0.23;100.00;94818.34;5000983;28;20036;-87
2022/01/11 07:59:55;;;;;;;7.05;3.85;;;;;;;0.29;100.00;94819.38;5017709;28;20092;-87
2022/01/11 08:02:23;;;;;;;8.20;3.60;;;;;;;0.37;100.00;94824.34;5000362;28;20033;-87
2022/01/11 08:04:51;;;;;;;8.73;3.78;;;;;;;0.40;100.00;94823.19;4984530;28;20029;-87
2022/01/11 08:07:17;;;;;;;12.15;3.60;;;;;;;0.43;100.00;94827.97;4984921;28;20033;-87
2022/01/11 08:09:42;;;;;;;12.32;4.13;;;;;;;0.33;100.00;94824.94;4984650;28;20482;-87
2022/01/11 08:12:11;;;;;;;8.40;3.30;;;;;;;0.41;100.00;94829.94;4984497;28;20062;-87
2022/01/11 08:14:37;;;;;;;9.43;3.10;;;;;;;0.37;100.00;94831.31;5016856;28;20034;-87
2022/01/11 08:17:03;;;;;;;8.18;3.45;;;;;;;0.52;100.00;94834.53;4984099;28;20504;-87
2022/01/11 08:19:30;;;;;;;16.98;3.72;;;;;;;0.62;100.00;94839.34;4984203;28;20044;-87
2022/01/11 08:21:57;;;;;;;5.70;2.75;;;;;;;0.58;100.00;94845.06;4984420;28;20038;-87
2022/01/11 08:24:23;;;;;;;13.98;3.47;;;;;;;0.60;100.00;94848.25;4984095;28;20191;-87
2022/01/11 08:26:53;;;;;;;8.85;3.38;;;;;;;0.64;100.00;94852.03;4984420;28;20065;-86
2022/01/11 08:29:20;;;;;;;6.30;3.05;;;;;;;0.79;100.00;94854.47;4983916;28;20342;-86
2022/01/11 08:31:46;;;;;;;11.35;3.13;;;;;;;0.98;100.00;94861.47;4999809;28;20022;-87
2022/01/11 08:34:14;;;;;;;11.60;3.30;;;;;;;0.98;100.00;94864.03;4983930;28;20030;-87
2022/01/11 08:36:43;;;;;;;10.50;3.45;;;;;;;1.03;100.00;94873.00;5000224;28;20032;-87
2022/01/11 08:39:11;;;;;;;6.97;3.03;;;;;;;1.02;100.00;94877.38;4999575;28;20084;-86
2022/01/11 08:41:40;;;;;;;9.90;3.55;;;;;;;0.99;100.00;94875.19;4983435;28;20128;-87
2022/01/11 08:44:13;;;;;;;11.82;3.55;;;;;;;1.23;100.00;94876.41;4984334;28;20026;-87
2022/01/11 08:46:42;;;;;;;;;;;;;;;1.17;100.00;94890.13;4985418;28;20030;-87
2022/01/11 08:49:09;;;;;;;8.50;3.78;;;;;;;1.20;100.00;94888.91;4999998;28;19913;-87
2022/01/11 08:51:35;;;;;;;7.97;3.85;;;;;;;1.32;100.00;94894.31;4999562;28;20121;-87
2022/01/11 08:54:01;;;;;;;8.70;3.53;;;;;;;1.41;100.00;94893.94;4999989;28;20479;-87
2022/01/11 08:56:28;;;;;;;8.82;3.58;;;;;;;1.42;100.00;94902.47;4999219;28;20340;-87
2022/01/11 08:58:54;;;;;;;8.00;3.33;;;;;;;1.48;100.00;94906.84;4999957;28;20056;-87
2022/01/11 09:01:20;;;;;;;17.92;3.40;;;;;;;1.58;100.00;94897.91;4983554;28;20033;-87
2022/01/11 09:03:45;;;;;;;11.55;4.05;;;;;;;1.49;100.00;94890.38;4983489;28;20030;-87
2022/01/11 09:06:11;;;;;;;12.95;3.95;;;;;;;1.54;100.00;94906.06;5016865;28;20040;-87
2022/01/11 09:08:40;;;;;;;9.43;3.70;;;;;;;1.55;100.00;94907.66;4983549;28;20084;-87
2022/01/11 09:11:06;;;;;;;7.57;3.45;;;;;;;1.85;100.00;94898.75;4983600;28;20128;-87
2022/01/11 09:13:36;;;;;;;12.45;4.07;;;;;;;1.92;100.00;94912.44;4983508;28;20030;-87
2022/01/11 09:16:11;;;;;;;;;;;;;;;;;;;;;
2022/01/11 09:18:38;;;;;;;10.55;3.42;;;;;;;2.13;100.00;94915.84;5000710;28;20021;-87
2022/01/11 09:21:04;;;;;;;8.55;3.60;;;;;;;2.18;100.00;94920.41;4982618;28;20120;-87
2022/01/11 09:23:32;;;;;;;9.23;3.58;;;;;;;2.15;100.00;94924.19;4999467;28;20311;-87
2022/01/11 09:25:58;;;;;;;6.90;3.00;;;;;;;2.08;100.00;94919.00;4984098;28;20033;-87
2022/01/11 09:28:24;;;;;;;7.50;3.40;;;;;;;2.18;100.00;94931.53;5003413;28;20034;-87
2022/01/11 09:30:51;;;;;;;13.27;2.90;;;;;;;2.28;100.00;94927.75;4987151;28;20045;-87
2022/01/11 09:33:17;;;;;;;10.43;3.00;;;;;;;2.35;100.00;94929.31;4987169;28;20026;-87
2022/01/11 09:35:42;;;;;;;16.63;3.33;;;;;;;2.44;100.00;94932.50;4986458;28;20041;-87
2022/01/11 09:38:15;;;;;;;14.07;3.45;;;;;;;2.47;100.00;94939.06;4986851;28;20434;-87
2022/01/11 09:40:40;;;;;;;8.38;3.38;;;;;;;2.41;100.00;94932.91;4988149;28;20087;-87
2022/01/11 09:43:06;;;;;;;10.20;3.15;;;;;;;2.47;100.00;94931.31;5002900;28;20030;-87
2022/01/11 09:45:34;;;;;;;11.57;3.65;;;;;;;2.41;100.00;94935.50;4987009;28;20064;-87
2022/01/11 09:47:59;;;;;;;13.20;3.20;;;;;;;2.52;100.00;94934.06;5003207;28;20137;-87
2022/01/11 09:50:37;;;;;;;7.82;3.28;;;;;;;2.51;100.00;94933.28;4986190;28;20030;-87
2022/01/11 09:53:03;;;;;;;8.63;3.17;;;;;;;2.60;100.00;94930.47;4986848;28;20121;-87
2022/01/11 09:55:30;;;;;;;8.50;3.25;;;;;;;2.62;100.00;94944.81;5002867;28;20474;-87
2022/01/11 09:57:56;;;;;;;7.30;3.10;;;;;;;2.49;100.00;94947.41;5003074;28;20435;-87
2022/01/11 10:00:21;;;;;;;5.75;2.67;;;;;;;2.81;100.00;94943.16;4986691;28;20033;-87
2022/01/11 10:02:47;;;;;;;10.38;2.80;;;;;;;2.84;100.00;94944.53;5020056;28;20034;-87
2022/01/11 10:05:16;;;;;;;6.72;2.88;;;;;;;2.92;90.46;94935.75;5020210;28;20113;-87
2022/01/11 10:07:42;;;;;;;7.47;2.95;;;;;;;3.10;99.10;94950.63;5002833;28;20030;-87
2022/01/11 10:10:16;;;;;;;4.45;2.13;;;;;;;3.04;92.95;94936.69;5002562;28;20044;-87
2022/01/11 10:12:45;;;;;;;9.18;2.85;;;;;;;2.99;99.57;94943.50;5019974;28;20022;-87
2022/01/11 10:15:12;;;;;;;13.43;2.60;;;;;;;3.06;96.48;94946.88;5019783;28;20466;-86
2022/01/11 10:17:43;;;;;;;6.72;2.90;;;;;;;3.19;100.00;94952.00;5018562;28;20034;-87
2022/01/11 10:20:22;;;;;;;3.72;2.13;;;;;;;3.14;92.26;94951.78;4986515;28;20087;-86
2022/01/11 10:22:53;;;;;;;6.15;2.60;;;;;;;3.12;96.40;94943.44;5002392;28;20085;-86
2022/01/11 10:25:18;;;;;;;5.80;2.45;;;;;;;3.10;90.91;94950.63;5019549;28;20402;-86
2022/01/11 10:28:12;;;;;;;15.60;2.70;;;;;;;3.09;88.95;94949.84;5019538;28;20030;-87
2022/01/11 10:30:39;;;;;;;5.20;2.47;;;;;;;3.19;95.44;94962.34;5019021;28;20038;-87
2022/01/11 10:33:07;;;;;;;13.52;2.63;;;;;;;3.24;90.00;94956.56;4985722;28;20053;-86
2022/01/11 10:35:42;;;;;;;7.72;2.25;;;;;;;3.22;80.11;94961.94;5001912;28;20486;-87
2022/01/11 10:38:08;;;;;;;8.20;3.30;;;;;;;3.52;100.00;94960.59;4985370;28;20061;-86
2022/01/11 10:40:42;;;;;;;7.95;2.47;;;;;;;3.36;85.19;94961.88;5019277;28;20029;-86
2022/01/11 10:43:12;;;;;;;7.75;2.50;;;;;;;3.33;85.10;94965.66;4985789;28;20040;-86
2022/01/11 10:45:41;;;;;;;11.32;3.22;;;;;;;3.46;91.99;94966.59;5001676;28;20403;-86
2022/01/11 10:48:12;;;;;;;7.22;2.53;;;;;;;3.44;87.94;94963.44;5019132;28;20030;-86
2022/01/11 10:50:46;;;;;;;7.88;2.97;;;;;;;3.43;84.85;94949.66;5001862;28;20030;-86
2022/01/11 10:53:13;;;;;;;8.10;3.17;;;;;;;3.47;97.48;94956.03;4985166;28;20026;-87
2022/01/11 10:55:39;;;;;;;12.27;2.60;;;;;;;3.32;82.39;94963.28;5001804;28;20320;-87
2022/01/11 10:58:10;;;;;;;7.70;2.53;;;;;;;3.22;79.70;94948.19;4985113;28;20045;-86
2022/01/11 11:00:40;;;;;;;14.23;2.90;;;;;;;3.25;85.49;94955.56;5001577;28;20435;-87
2022/01/11 11:03:10;;;;;;;6.85;2.55;;;;;;;3.20;78.02;94953.56;5018937;28;20033;-87
2022/01/11 11:05:41;;;;;;;5.15;2.55;;;;;;;3.39;87.92;94953.69;4985800;28;20041;-86
2022/01/11 11:08:15;;;;;;;8.93;2.95;;;;;;;3.30;74.53;94965.28;5001679;28;20029;-87
2022/01/11 11:10:45;;;;;;;5.70;2.58;;;;;;;3.34;84.99;94962.06;4985692;28;20030;-87
2022/01/11 11:13:22;;;;;;;7.75;2.60;;;;;;;3.26;73.50;94957.16;5018519;28;20032;-87
2022/01/11 11:15:51;;;;;;;7.63;3.38;;;;;;;3.30;75.61;94954.91;5001319;28;20474;-86
2022/01/11 11:18:26;;;;;;;9.18;2.53;;;;;;;3.62;86.87;94957.56;4985396;28;20152;-87
2022/01/11 11:20:52;;;;;;;5.82;2.53;;;;;;;3.47;78.82;94956.03;5001277;28;20331;-86
2022/01/11 11:23:18;;;;;;;11.60;3.00;;;;;;;3.45;86.07;94946.88;5000990;28;20036;-87
2022/01/11 11:25:46;;;;;;;6.78;2.80;;;;;;;3.63;76.48;94952.16;4985266;28;20120;-86
2022/01/11 11:28:12;;;;;;;8.98;3.10;;;;;;;3.68;81.92;94954.13;5001326;28;20338;-87
2022/01/11 11:30:38;;;;;;;8.60;2.40;;;;;;;3.63;72.01;94941.78;5001174;28;20113;-87
2022/01/11 11:33:05;;;;;;;5.72;2.45;;;;;;;3.73;77.45;94938.75;5000235;28;20028;-87
2022/01/11 11:35:32;;;;;;;7.13;2.60;;;;;;;3.73;75.00;94943.13;4982061;28;20026;-87
2022/01/11 11:38:01;;;;;;;6.72;2.83;;;;;;;3.67;75.82;94931.81;4984090;28;20030;-87
2022/01/11 11:40:30;;;;;;;10.77;2.95;;;;;;;3.79;76.59;94935.31;5000607;28;20025;-87
2022/01/11 11:42:59;;;;;;;7.05;2.75;;;;;;;3.82;78.65;94940.06;4981331;28;20088;-87
2022/01/11 11:45:34;;;;;;;6.15;2.75;;;;;;;3.89;73.41;94939.25;4981720;28;20033;-87
2022/01/11 11:48:06;;;;;;;8.55;2.70;;;;;;;3.87;74.05;94931.66;5000842;28;20061;-87
2022/01/11 11:50:33;;;;;;;5.10;2.22;;;;;;;4.00;72.01;94933.34;4985041;28;20446;-86
2022/01/11 11:52:58;;;;;;;7.57;2.35;;;;;;;4.09;75.90;94926.91;5005314;28;20033;-86
2022/01/11 11:55:34;;;;;;;9.90;2.08;;;;;;;4.10;69.95;94928.50;4965018;28;20463;-87
2022/01/11 11:58:05;;;;;;;7.78;2.40;;;;;;;3.82;64.09;94929.69;4981290;28;20038;-87
2022/01/11 12:00:36;;;;;;;6.38;2.55;;;;;;;3.83;67.54;94927.91;4998009;28;20382;-87
2022/01/11 12:03:19;;;;;;;12.30;2.13;;;;;;;3.79;63.65;94916.38;5000458;28;20087;-87
2022/01/11 12:05:48;;;;;;;7.47;2.35;;;;;;;3.88;63.88;94911.75;5016613;28;20367;-86
2022/01/11 12:08:29;;;;;;;6.00;2.03;;;;;;;3.85;65.82;94912.94;4984669;28;20032;-87
2022/01/11 12:11:00;;;;;;;4.85;2.20;;;;;;;3.74;62.77;94913.63;5000429;28;20034;-87
2022/01/11 12:13:55;;;;;;;5.13;2.25;;;;;;;3.77;62.62;94919.19;5000573;28;20428;-86
2022/01/11 12:16:34;;;;;;;8.57;2.28;;;;;;;3.77;63.88;94915.78;5014647;28;20046;-87
2022/01/11 12:19:04;;;;;;;6.60;2.50;;;;;;;3.68;61.29;94915.25;5017512;28;20550;-87
2022/01/11 12:21:40;;;;;;;7.93;2.28;;;;;;;3.67;61.73;94905.88;5000630;28;20041;-87
2022/01/11 12:24:06;;;;;;;4.85;2.00;;;;;;;3.76;62.22;94912.41;5017472;28;20139;-86
2022/01/11 12:26:39;;;;;;;9.93;2.75;;;;;;;3.87;64.62;94917.91;4983731;28;20065;-87
2022/01/11 12:29:05;;;;;;;6.55;2.20;;;;;;;3.78;61.15;94918.19;5000601;28;20057;-87
2022/01/11 12:31:52;;;;;;;3.90;2.20;;;;;;;3.85;63.57;94927.69;5017139;28;20059;-87
2022/01/11 12:34:18;;;;;;;7.70;2.08;;;;;;;3.79;60.04;94922.34;5000040;28;20026;-87
2022/01/11 12:37:06;;;;;;;3.70;1.75;;;;;;;3.78;62.02;94925.16;4983837;28;20375;-87
2022/01/11 12:39:32;;;;;;;5.40;2.45;;;;;;;3.85;60.92;94925.09;4999815;28;20109;-87
2022/01/11 12:42:02;;;;;;;7.97;2.55;;;;;;;3.80;61.12;94923.94;4983988;28;20036;-87
2022/01/11 12:45:35;;;;;;;7.30;2.03;;;;;;;3.77;61.92;94918.38;5000020;28;20087;-86
2022/01/11 12:47:22;;;;;;;4.55;2.03;;;;;;;4.14;70.36;94912.50;5016900;28;20037;-87
2022/01/11 12:50:09;;;;;;;4.43;2.08;;;;;;;4.20;65.41;94899.47;4983989;28;20033;-87
2022/01/11 12:52:35;;;;;;;5.20;2.20;;;;;;;4.23;62.61;94904.25;4999769;28;20017;-87
2022/01/11 12:55:01;;;;;;;4.95;2.45;;;;;;;4.02;61.83;94902.84;4999835;28;20022;-87
2022/01/11 12:57:29;;;;;;;7.32;2.50;;;;;;;4.06;63.90;94898.00;5016031;28;20108;-87
2022/01/11 12:59:58;;;;;;;6.53;2.65;;;;;;;3.82;67.23;94900.41;5016210;28;20335;-87
2022/01/11 13:02:29;;;;;;;9.02;2.50;;;;;;;3.78;67.48;94909.59;5015309;28;20022;-87
2022/01/11 13:05:10;;;;;;;6.93;2.33;;;;;;;3.75;64.90;94905.66;4983630;28;20120;-87
2022/01/11 13:07:37;;;;;;;6.07;2.17;;;;;;;3.77;60.88;94895.03;4983679;28;20040;-88
2022/01/11 13:10:25;;;;;;;6.05;2.70;;;;;;;3.85;61.53;94894.81;4999498;28;20080;-88
2022/01/11 13:13:11;;;;;;;7.07;2.30;;;;;;;3.73;61.13;94891.28;4983406;28;20030;-87
2022/01/11 13:15:40;;;;;;;6.18;2.22;;;;;;;3.82;60.99;94885.63;5000159;28;20072;-87
2022/01/11 13:18:13;;;;;;;7.05;2.17;;;;;;;3.85;58.93;94886.22;4999276;28;20046;-87
2022/01/11 13:20:44;;;;;;;6.82;2.72;;;;;;;3.80;58.08;94879.88;4983987;28;20037;-87
2022/01/11 13:23:29;;;;;;;4.53;1.95;;;;;;;4.04;58.11;94887.88;4999196;28;20037;-87
2022/01/11 13:26:10;;;;;;;8.77;2.53;;;;;;;4.07;59.22;94884.84;5000847;28;20113;-87
2022/01/11 13:28:46;;;;;;;9.80;2.50;;;;;;;4.03;58.28;94881.09;4999467;28;20394;-87
2022/01/11 13:31:26;;;;;;;8.55;2.55;;;;;;;4.01;58.43;94883.09;4999411;28;20049;-87
2022/01/11 13:33:57;;;;;;;5.50;2.45;;;;;;;3.99;58.15;94881.72;4983884;28;20033;-87
2022/01/11 13:36:34;;;;;;;6.72;2.60;;;;;;;4.06;57.02;94887.63;5015777;28;20025;-87
2022/01/11 13:39:14;;;;;;;5.07;2.78;;;;;;;3.95;58.17;94886.53;4983371;28;20412;-87